createdAt,value
2014-12-26T00:00:08.002Z,100292
2014-12-26T00:00:26.455Z,100292
2014-12-26T00:00:44.940Z,100300
2014-12-26T00:01:03.410Z,100303
2014-12-26T00:01:21.848Z,100300
2014-12-26T00:01:40.301Z,100287
2014-12-26T00:01:58.754Z,100292
2014-12-26T00:02:17.209Z,100292
2014-12-26T00:02:35.694Z,100292
2014-12-26T00:02:54.147Z,100295
2014-12-26T00:03:12.635Z,100295
2014-12-26T00:03:31.088Z,100297
2014-12-26T00:03:49.541Z,100287
2014-12-26T00:04:08.012Z,100282
2014-12-26T00:04:26.465Z,100297
2014-12-26T00:04:44.950Z,100289
2014-12-26T00:05:03.418Z,100300
2014-12-26T00:05:21.873Z,100292
2014-12-26T00:05:40.326Z,100295
2014-12-26T00:05:58.779Z,100297
2014-12-26T00:06:17.219Z,100295
2014-12-26T00:06:35.688Z,100295
2014-12-26T00:06:54.141Z,100292
2014-12-26T00:07:12.597Z,100297
2014-12-26T00:07:31.050Z,100297
2014-12-26T00:07:49.488Z,100292
2014-12-26T00:08:07.957Z,100295
2014-12-26T00:08:26.412Z,100295
2014-12-26T00:08:44.865Z,100309
2014-12-26T00:09:03.318Z,100289
2014-12-26T00:09:21.774Z,100292
2014-12-26T00:09:40.227Z,100300
2014-12-26T00:09:58.680Z,100297
2014-12-26T00:10:17.134Z,100292
2014-12-26T00:10:35.589Z,100295
2014-12-26T00:10:54.042Z,100297
2014-12-26T00:11:12.479Z,100292
2014-12-26T00:11:30.967Z,100297
2014-12-26T00:11:49.404Z,100297
2014-12-26T00:12:07.873Z,100300
2014-12-26T00:12:26.312Z,100295
2014-12-26T00:12:44.797Z,100295
2014-12-26T00:13:03.250Z,100300
2014-12-26T00:13:21.719Z,100300
2014-12-26T00:13:40.189Z,100303
2014-12-26T00:13:58.643Z,100295
2014-12-26T00:14:17.096Z,100303
2014-12-26T00:14:35.583Z,100303
2014-12-26T00:14:54.036Z,100300
2014-12-26T00:15:12.521Z,100295
2014-12-26T00:15:30.960Z,100303
2014-12-26T00:15:49.460Z,100297
2014-12-26T00:16:07.913Z,100300
2014-12-26T00:16:26.351Z,100303
2014-12-26T00:16:44.806Z,100297
2014-12-26T00:17:03.275Z,100303
2014-12-26T00:17:21.728Z,100295
2014-12-26T00:17:40.167Z,100297
2014-12-26T00:17:58.620Z,100309
2014-12-26T00:18:17.073Z,100309
2014-12-26T00:18:35.527Z,100303
2014-12-26T00:18:53.983Z,100297
2014-12-26T00:19:12.451Z,100303
2014-12-26T00:19:30.889Z,100303
2014-12-26T00:19:49.344Z,100314
2014-12-26T00:20:07.813Z,100303
2014-12-26T00:20:26.266Z,100314
2014-12-26T00:20:44.753Z,100297
2014-12-26T00:21:03.206Z,100297
2014-12-26T00:21:21.660Z,100303
2014-12-26T00:21:40.113Z,100309
2014-12-26T00:21:58.568Z,100309
2014-12-26T00:22:17.021Z,100303
2014-12-26T00:22:35.474Z,100303
2014-12-26T00:22:53.929Z,100300
2014-12-26T00:23:12.382Z,100303
2014-12-26T00:23:30.835Z,100303
2014-12-26T00:23:49.292Z,100306
2014-12-26T00:24:07.760Z,100306
2014-12-26T00:24:26.229Z,100306
2014-12-26T00:24:44.698Z,100314
2014-12-26T00:25:03.154Z,100309
2014-12-26T00:25:21.638Z,100303
2014-12-26T00:25:40.076Z,100303
2014-12-26T00:25:58.531Z,100314
2014-12-26T00:26:17.890Z,100314
2014-12-26T00:26:36.781Z,100306
2014-12-26T00:26:55.236Z,100314
2014-12-26T00:27:13.720Z,100306
2014-12-26T00:27:32.174Z,100320
2014-12-26T00:27:50.627Z,100303
2014-12-26T00:28:09.067Z,100314
2014-12-26T00:28:27.536Z,100317
2014-12-26T00:28:45.989Z,100325
2014-12-26T00:29:04.444Z,100314
2014-12-26T00:29:22.897Z,100311
2014-12-26T00:29:41.413Z,100314
2014-12-26T00:29:59.868Z,100317
2014-12-26T00:30:18.352Z,100300
2014-12-26T00:30:36.806Z,100314
2014-12-26T00:30:55.259Z,100309
2014-12-26T00:31:13.714Z,100314
2014-12-26T00:31:32.167Z,100303
2014-12-26T00:31:50.620Z,100309
2014-12-26T00:32:09.076Z,100303
2014-12-26T00:32:27.561Z,100309
2014-12-26T00:32:46.014Z,100306
2014-12-26T00:33:04.467Z,100314
2014-12-26T00:33:22.922Z,100320
2014-12-26T00:33:41.375Z,100314
2014-12-26T00:33:59.828Z,100306
2014-12-26T00:34:18.300Z,100309
2014-12-26T00:34:36.753Z,100320
2014-12-26T00:34:55.206Z,100306
2014-12-26T00:35:13.661Z,100306
2014-12-26T00:35:32.130Z,100303
2014-12-26T00:35:50.568Z,100314
2014-12-26T00:36:09.021Z,100306
2014-12-26T00:36:27.507Z,100320
2014-12-26T00:36:45.960Z,100320
2014-12-26T00:37:04.429Z,100314
2014-12-26T00:37:22.885Z,100317
2014-12-26T00:37:41.323Z,100314
2014-12-26T00:37:59.776Z,100309
2014-12-26T00:38:18.232Z,100314
2014-12-26T00:38:36.685Z,100320
2014-12-26T00:38:55.185Z,100317
2014-12-26T00:39:13.607Z,100317
2014-12-26T00:39:32.077Z,100320
2014-12-26T00:39:50.545Z,100317
2014-12-26T00:40:08.998Z,100317
2014-12-26T00:40:27.456Z,100309
2014-12-26T00:40:45.909Z,100314
2014-12-26T00:41:04.362Z,100320
2014-12-26T00:41:22.815Z,100317
2014-12-26T00:41:41.269Z,100325
2014-12-26T00:41:59.722Z,100323
2014-12-26T00:42:18.175Z,100320
2014-12-26T00:42:36.616Z,100325
2014-12-26T00:42:55.131Z,100317
2014-12-26T00:43:13.585Z,100311
2014-12-26T00:43:32.040Z,100311
2014-12-26T00:43:50.493Z,100314
2014-12-26T00:44:08.946Z,100317
2014-12-26T00:44:27.399Z,100320
2014-12-26T00:44:45.854Z,100334
2014-12-26T00:45:04.323Z,100320
2014-12-26T00:45:22.776Z,100311
2014-12-26T00:45:41.232Z,100317
2014-12-26T00:45:59.685Z,100331
2014-12-26T00:46:18.154Z,100331
2014-12-26T00:46:36.594Z,100320
2014-12-26T00:46:55.047Z,100320
2014-12-26T00:47:13.531Z,100320
2014-12-26T00:47:31.984Z,100320
2014-12-26T00:47:50.487Z,100311
2014-12-26T00:48:08.925Z,100314
2014-12-26T00:48:27.409Z,100320
2014-12-26T00:48:45.864Z,100311
2014-12-26T00:49:04.302Z,100314
2014-12-26T00:49:22.755Z,100325
2014-12-26T00:49:41.208Z,100325
2014-12-26T00:49:59.663Z,100317
2014-12-26T00:50:18.179Z,100323
2014-12-26T00:50:36.632Z,100314
2014-12-26T00:50:55.072Z,100320
2014-12-26T00:51:13.541Z,100320
2014-12-26T00:51:32.025Z,100320
2014-12-26T00:51:50.450Z,100303
2014-12-26T00:52:08.919Z,100314
2014-12-26T00:52:27.357Z,100320
2014-12-26T00:52:45.810Z,100325
2014-12-26T00:53:04.312Z,100311
2014-12-26T00:53:22.765Z,100309
2014-12-26T00:53:41.218Z,100320
2014-12-26T00:53:59.657Z,100303
2014-12-26T00:54:18.111Z,100320
2014-12-26T00:54:36.564Z,100325
2014-12-26T00:54:55.020Z,100323
2014-12-26T00:55:13.473Z,100314
2014-12-26T00:55:31.973Z,100323
2014-12-26T00:55:50.442Z,100309
2014-12-26T00:56:08.881Z,100311
2014-12-26T00:56:27.366Z,100320
2014-12-26T00:56:45.819Z,100323
2014-12-26T00:57:04.306Z,100320
2014-12-26T00:57:22.759Z,100325
2014-12-26T00:57:41.244Z,100336
2014-12-26T00:57:59.697Z,100325
2014-12-26T00:58:18.167Z,100314
2014-12-26T00:58:36.621Z,100320
2014-12-26T00:58:55.074Z,100331
2014-12-26T00:59:13.513Z,100320
2014-12-26T00:59:32.013Z,100323
2014-12-26T00:59:50.482Z,100323
2014-12-26T01:00:08.953Z,100334
2014-12-26T01:00:27.406Z,100336
2014-12-26T01:00:45.890Z,100323
2014-12-26T01:01:04.328Z,100325
2014-12-26T01:01:22.799Z,100325
2014-12-26T01:01:41.237Z,100325
2014-12-26T01:01:59.690Z,100325
2014-12-26T01:02:18.192Z,100334
2014-12-26T01:02:36.645Z,100339
2014-12-26T01:02:55.130Z,100336
2014-12-26T01:03:13.570Z,100325
2014-12-26T01:03:32.023Z,100334
2014-12-26T01:03:50.476Z,100339
2014-12-26T01:04:09.008Z,100331
2014-12-26T01:04:27.447Z,100331
2014-12-26T01:04:45.916Z,100334
2014-12-26T01:05:04.353Z,100334
2014-12-26T01:05:22.825Z,100339
2014-12-26T01:05:41.309Z,100334
2014-12-26T01:05:59.747Z,100320
2014-12-26T01:06:18.218Z,100320
2014-12-26T01:06:36.671Z,100325
2014-12-26T01:06:55.124Z,100331
2014-12-26T01:07:13.561Z,100331
2014-12-26T01:07:32.032Z,100339
2014-12-26T01:07:50.470Z,100334
2014-12-26T01:08:08.923Z,100336
2014-12-26T01:08:27.379Z,100334
2014-12-26T01:08:45.848Z,100331
2014-12-26T01:09:04.301Z,100323
2014-12-26T01:09:22.848Z,100325
2014-12-26T01:09:41.303Z,100342
2014-12-26T01:09:59.772Z,100331
2014-12-26T01:10:18.209Z,100334
2014-12-26T01:10:36.665Z,100339
2014-12-26T01:10:55.150Z,100334
2014-12-26T01:11:13.587Z,100344
2014-12-26T01:11:32.073Z,100342
2014-12-26T01:11:50.527Z,100347
2014-12-26T01:12:08.980Z,100334
2014-12-26T01:12:27.433Z,100331
2014-12-26T01:12:45.888Z,100325
2014-12-26T01:13:04.357Z,100336
2014-12-26T01:13:22.810Z,100331
2014-12-26T01:13:41.265Z,100342
2014-12-26T01:13:59.734Z,100336
2014-12-26T01:14:18.202Z,100344
2014-12-26T01:14:36.659Z,100344
2014-12-26T01:14:55.112Z,100339
2014-12-26T01:15:13.565Z,100339
2014-12-26T01:15:32.018Z,100344
2014-12-26T01:15:50.473Z,100336
2014-12-26T01:16:08.911Z,100334
2014-12-26T01:16:27.364Z,100344
2014-12-26T01:16:45.804Z,100334
2014-12-26T01:17:04.273Z,100344
2014-12-26T01:17:22.773Z,100339
2014-12-26T01:17:41.210Z,100336
2014-12-26T01:17:59.697Z,100336
2014-12-26T01:18:18.119Z,100339
2014-12-26T01:18:36.587Z,100344
2014-12-26T01:18:55.027Z,100339
2014-12-26T01:19:13.480Z,100339
2014-12-26T01:19:31.933Z,100339
2014-12-26T01:19:50.389Z,100347
2014-12-26T01:20:08.858Z,100342
2014-12-26T01:20:27.311Z,100344
2014-12-26T01:20:45.796Z,100334
2014-12-26T01:21:04.251Z,100342
2014-12-26T01:21:22.719Z,100336
2014-12-26T01:21:41.173Z,100339
2014-12-26T01:21:59.847Z,100344
2014-12-26T01:22:18.097Z,100344
2014-12-26T01:22:36.551Z,100342
2014-12-26T01:22:54.990Z,100342
2014-12-26T01:23:13.459Z,100342
2014-12-26T01:23:31.912Z,100342
2014-12-26T01:23:50.365Z,100347
2014-12-26T01:24:08.821Z,100342
2014-12-26T01:24:27.274Z,100350
2014-12-26T01:24:45.727Z,100344
2014-12-26T01:25:04.183Z,100347
2014-12-26T01:25:22.667Z,100344
2014-12-26T01:25:41.120Z,100350
2014-12-26T01:25:59.604Z,100350
2014-12-26T01:26:18.013Z,100350
2014-12-26T01:26:36.497Z,100347
2014-12-26T01:26:54.935Z,100347
2014-12-26T01:27:13.391Z,100353
2014-12-26T01:27:31.844Z,100353
2014-12-26T01:27:50.297Z,100347
2014-12-26T01:28:08.752Z,100350
2014-12-26T01:28:27.205Z,100350
2014-12-26T01:28:45.658Z,100341
2014-12-26T01:29:04.127Z,100342
2014-12-26T01:29:22.567Z,100344
2014-12-26T01:29:41.035Z,100347
2014-12-26T01:29:59.473Z,100341
2014-12-26T01:30:17.945Z,100347
2014-12-26T01:30:36.398Z,100342
2014-12-26T01:30:54.835Z,100344
2014-12-26T01:31:13.290Z,100350
2014-12-26T01:31:31.759Z,100350
2014-12-26T01:31:50.212Z,100358
2014-12-26T01:32:08.681Z,100344
2014-12-26T01:32:27.136Z,100344
2014-12-26T01:32:45.589Z,100347
2014-12-26T01:33:04.042Z,100339
2014-12-26T01:33:22.514Z,100339
2014-12-26T01:33:40.967Z,100341
2014-12-26T01:33:59.420Z,100347
2014-12-26T01:34:17.889Z,100341
2014-12-26T01:34:36.360Z,100342
2014-12-26T01:34:54.844Z,100341
2014-12-26T01:35:13.297Z,100347
2014-12-26T01:35:31.785Z,100347
2014-12-26T01:35:50.222Z,100342
2014-12-26T01:36:08.675Z,100350
2014-12-26T01:36:27.131Z,100339
2014-12-26T01:36:45.585Z,100341
2014-12-26T01:37:04.022Z,100341
2014-12-26T01:37:22.475Z,100341
2014-12-26T01:37:40.930Z,100347
2014-12-26T01:37:59.383Z,100350
2014-12-26T01:38:17.852Z,100356
2014-12-26T01:38:36.292Z,100358
2014-12-26T01:38:54.745Z,100344
2014-12-26T01:39:13.198Z,100353
2014-12-26T01:39:31.653Z,100361
2014-12-26T01:39:50.106Z,100353
2014-12-26T01:40:08.559Z,100353
2014-12-26T01:40:27.012Z,100339
2014-12-26T01:40:45.453Z,100347
2014-12-26T01:41:03.922Z,100347
2014-12-26T01:41:22.375Z,100353
2014-12-26T01:41:40.846Z,100353
2014-12-26T01:41:59.314Z,100347
2014-12-26T01:42:17.752Z,100361
2014-12-26T01:42:36.189Z,100356
2014-12-26T01:42:54.677Z,100358
2014-12-26T01:43:13.130Z,100342
2014-12-26T01:43:31.583Z,100347
2014-12-26T01:43:50.038Z,100356
2014-12-26T01:44:08.491Z,100350
2014-12-26T01:44:26.944Z,100356
2014-12-26T01:44:45.447Z,100344
2014-12-26T01:45:03.900Z,100356
2014-12-26T01:45:22.369Z,100347
2014-12-26T01:45:40.822Z,100347
2014-12-26T01:45:59.277Z,100341
2014-12-26T01:46:17.762Z,100350
2014-12-26T01:46:36.199Z,100350
2014-12-26T01:46:54.686Z,100347
2014-12-26T01:47:13.139Z,100358
2014-12-26T01:47:31.608Z,100353
2014-12-26T01:47:50.079Z,100341
2014-12-26T01:48:08.564Z,100361
2014-12-26T01:48:27.017Z,100353
2014-12-26T01:48:45.470Z,100353
2014-12-26T01:49:03.925Z,100347
2014-12-26T01:49:22.394Z,100344
2014-12-26T01:49:40.847Z,100347
2014-12-26T01:49:59.302Z,100350
2014-12-26T01:50:17.755Z,100347
2014-12-26T01:50:36.224Z,100347
2014-12-26T01:50:54.708Z,100347
2014-12-26T01:51:13.148Z,100341
2014-12-26T01:51:31.632Z,100361
2014-12-26T01:51:50.085Z,100353
2014-12-26T01:52:08.527Z,100353
2014-12-26T01:52:26.980Z,100356
2014-12-26T01:52:45.449Z,100350
2014-12-26T01:53:03.888Z,100347
2014-12-26T01:53:22.341Z,100358
2014-12-26T01:53:40.794Z,100347
2014-12-26T01:53:59.310Z,100341
2014-12-26T01:54:17.781Z,100358
2014-12-26T01:54:36.250Z,100347
2014-12-26T01:54:54.703Z,100350
2014-12-26T01:55:13.158Z,100341
2014-12-26T01:55:31.642Z,100353
2014-12-26T01:55:50.095Z,100347
2014-12-26T01:56:08.567Z,100347
2014-12-26T01:56:27.036Z,100350
2014-12-26T01:56:45.505Z,100347
2014-12-26T01:57:03.958Z,100358
2014-12-26T01:57:22.444Z,100344
2014-12-26T01:57:40.897Z,100358
2014-12-26T01:57:59.366Z,100353
2014-12-26T01:58:17.837Z,100347
2014-12-26T01:58:36.290Z,100353
2014-12-26T01:58:54.727Z,100358
2014-12-26T01:59:13.259Z,100364
2014-12-26T01:59:31.715Z,100344
2014-12-26T01:59:50.168Z,100341
2014-12-26T02:00:08.605Z,100353
2014-12-26T02:00:27.076Z,100353
2014-12-26T02:00:45.529Z,100347
2014-12-26T02:01:03.982Z,100347
2014-12-26T02:01:22.438Z,100347
2014-12-26T02:01:40.892Z,100347
2014-12-26T02:01:59.329Z,100341
2014-12-26T02:02:17.782Z,100353
2014-12-26T02:02:36.269Z,100344
2014-12-26T02:02:54.722Z,100347
2014-12-26T02:03:13.175Z,100353
2014-12-26T02:03:31.614Z,100356
2014-12-26T02:03:50.146Z,100353
2014-12-26T02:04:08.552Z,100344
2014-12-26T02:04:27.008Z,100353
2014-12-26T02:04:45.477Z,100356
2014-12-26T02:05:03.930Z,100347
2014-12-26T02:05:22.399Z,100353
2014-12-26T02:05:40.854Z,100347
2014-12-26T02:05:59.338Z,100361
2014-12-26T02:06:17.791Z,100358
2014-12-26T02:06:36.247Z,100358
2014-12-26T02:06:54.700Z,100358
2014-12-26T02:07:13.216Z,100347
2014-12-26T02:07:31.669Z,100356
2014-12-26T02:07:50.156Z,100358
2014-12-26T02:08:08.624Z,100353
2014-12-26T02:08:27.077Z,100358
2014-12-26T02:08:45.533Z,100353
2014-12-26T02:09:03.986Z,100347
2014-12-26T02:09:22.470Z,100358
2014-12-26T02:09:40.926Z,100364
2014-12-26T02:09:59.473Z,100344
2014-12-26T02:10:17.911Z,100350
2014-12-26T02:10:36.395Z,100353
2014-12-26T02:10:54.850Z,100358
2014-12-26T02:11:13.334Z,100347
2014-12-26T02:11:31.772Z,100361
2014-12-26T02:11:50.228Z,100358
2014-12-26T02:12:08.681Z,100358
2014-12-26T02:12:27.150Z,100358
2014-12-26T02:12:45.605Z,100344
2014-12-26T02:13:04.058Z,100347
2014-12-26T02:13:22.496Z,100353
2014-12-26T02:13:40.949Z,100344
2014-12-26T02:13:59.420Z,100356
2014-12-26T02:14:17.904Z,100353
2014-12-26T02:14:36.341Z,100353
2014-12-26T02:14:54.782Z,100341
2014-12-26T02:15:13.235Z,100358
2014-12-26T02:15:31.688Z,100347
2014-12-26T02:15:50.126Z,100353
2014-12-26T02:16:08.596Z,100353
2014-12-26T02:16:27.034Z,100353
2014-12-26T02:16:45.503Z,100364
2014-12-26T02:17:03.974Z,100358
2014-12-26T02:17:22.428Z,100353
2014-12-26T02:17:40.881Z,100344
2014-12-26T02:17:59.336Z,100353
2014-12-26T02:18:17.789Z,100344
2014-12-26T02:18:36.242Z,100353
2014-12-26T02:18:54.695Z,100353
2014-12-26T02:19:13.182Z,100350
2014-12-26T02:19:31.635Z,100353
2014-12-26T02:19:50.088Z,100358
2014-12-26T02:20:08.528Z,100353
2014-12-26T02:20:26.997Z,100353
2014-12-26T02:20:45.450Z,100358
2014-12-26T02:21:03.921Z,100353
2014-12-26T02:21:22.374Z,100361
2014-12-26T02:21:40.827Z,100350
2014-12-26T02:21:59.312Z,100350
2014-12-26T02:22:17.752Z,100358
2014-12-26T02:22:36.252Z,100344
2014-12-26T02:22:54.705Z,100356
2014-12-26T02:23:13.160Z,100370
2014-12-26T02:23:31.598Z,100361
2014-12-26T02:23:50.051Z,100353
2014-12-26T02:24:08.535Z,100361
2014-12-26T02:24:27.006Z,100341
2014-12-26T02:24:45.459Z,100356
2014-12-26T02:25:03.944Z,100350
2014-12-26T02:25:22.400Z,100344
2014-12-26T02:25:40.853Z,100353
2014-12-26T02:25:59.322Z,100353
2014-12-26T02:26:17.777Z,100347
2014-12-26T02:26:36.245Z,100347
2014-12-26T02:26:54.699Z,100353
2014-12-26T02:27:13.183Z,100347
2014-12-26T02:27:31.654Z,100344
2014-12-26T02:27:50.122Z,100336
2014-12-26T02:28:08.576Z,100341
2014-12-26T02:28:27.079Z,100336
2014-12-26T02:28:45.532Z,100344
2014-12-26T02:29:03.985Z,100347
2014-12-26T02:29:22.440Z,100356
2014-12-26T02:29:40.893Z,100347
2014-12-26T02:29:59.331Z,100341
2014-12-26T02:30:17.784Z,100344
2014-12-26T02:30:36.240Z,100336
2014-12-26T02:30:54.693Z,100336
2014-12-26T02:31:13.146Z,100336
2014-12-26T02:31:31.601Z,100347
2014-12-26T02:31:50.054Z,100339
2014-12-26T02:32:08.507Z,100350
2014-12-26T02:32:26.961Z,100347
2014-12-26T02:32:45.417Z,100350
2014-12-26T02:33:03.870Z,100344
2014-12-26T02:33:22.339Z,100344
2014-12-26T02:33:40.841Z,100341
2014-12-26T02:33:59.278Z,100347
2014-12-26T02:34:17.762Z,100341
2014-12-26T02:34:36.219Z,100341
2014-12-26T02:34:54.672Z,100353
2014-12-26T02:35:13.156Z,100353
2014-12-26T02:35:31.594Z,100347
2014-12-26T02:35:50.079Z,100347
2014-12-26T02:36:08.532Z,100353
2014-12-26T02:36:26.985Z,100347
2014-12-26T02:36:45.426Z,100344
2014-12-26T02:37:03.879Z,100339
2014-12-26T02:37:22.348Z,100358
2014-12-26T02:37:40.818Z,100336
2014-12-26T02:37:59.271Z,100336
2014-12-26T02:38:17.740Z,100339
2014-12-26T02:38:36.209Z,100336
2014-12-26T02:38:54.681Z,100350
2014-12-26T02:39:13.149Z,100358
2014-12-26T02:39:31.603Z,100344
2014-12-26T02:39:50.089Z,100350
2014-12-26T02:40:08.558Z,100353
2014-12-26T02:40:26.980Z,100341
2014-12-26T02:40:45.433Z,100341
2014-12-26T02:41:03.889Z,100344
2014-12-26T02:41:22.342Z,100344
2014-12-26T02:41:40.795Z,100344
2014-12-26T02:41:59.234Z,100353
2014-12-26T02:42:17.718Z,100350
2014-12-26T02:42:36.171Z,100350
2014-12-26T02:42:54.627Z,100350
2014-12-26T02:43:13.096Z,100358
2014-12-26T02:43:31.549Z,100350
2014-12-26T02:43:50.033Z,100353
2014-12-26T02:44:08.490Z,100350
2014-12-26T02:44:26.974Z,100344
2014-12-26T02:44:45.427Z,100344
2014-12-26T02:45:03.914Z,100344
2014-12-26T02:45:22.368Z,100341
2014-12-26T02:45:40.836Z,100341
2014-12-26T02:45:59.289Z,100350
2014-12-26T02:46:17.745Z,100353
2014-12-26T02:46:36.198Z,100347
2014-12-26T02:46:54.651Z,100353
2014-12-26T02:47:13.090Z,100358
2014-12-26T02:47:31.559Z,100341
2014-12-26T02:47:50.028Z,100347
2014-12-26T02:48:08.499Z,100358
2014-12-26T02:48:26.936Z,100353
2014-12-26T02:48:45.389Z,100350
2014-12-26T02:49:03.858Z,100353
2014-12-26T02:49:22.314Z,100353
2014-12-26T02:49:40.798Z,100347
2014-12-26T02:49:59.392Z,100356
2014-12-26T02:50:17.847Z,100350
2014-12-26T02:50:36.316Z,100344
2014-12-26T02:50:54.769Z,100353
2014-12-26T02:51:13.225Z,100350
2014-12-26T02:51:31.678Z,100353
2014-12-26T02:51:50.147Z,100356
2014-12-26T02:52:08.632Z,100350
2014-12-26T02:52:27.087Z,100350
2014-12-26T02:52:45.555Z,100353
2014-12-26T02:53:04.009Z,100353
2014-12-26T02:53:22.464Z,100350
2014-12-26T02:53:40.917Z,100353
2014-12-26T02:53:59.370Z,100344
2014-12-26T02:54:17.839Z,100341
2014-12-26T02:54:36.279Z,100331
2014-12-26T02:54:54.748Z,100336
2014-12-26T02:55:13.201Z,100347
2014-12-26T02:55:31.641Z,100344
2014-12-26T02:55:50.094Z,100344
2014-12-26T02:56:08.562Z,100350
2014-12-26T02:56:27.049Z,100350
2014-12-26T02:56:45.502Z,100336
2014-12-26T02:57:03.955Z,100339
2014-12-26T02:57:22.408Z,100350
2014-12-26T02:57:40.880Z,100350
2014-12-26T02:57:59.317Z,100350
2014-12-26T02:58:17.802Z,100350
2014-12-26T02:58:36.257Z,100341
2014-12-26T02:58:54.710Z,100331
2014-12-26T02:59:13.163Z,100344
2014-12-26T02:59:31.619Z,100344
2014-12-26T02:59:50.057Z,100341
2014-12-26T03:00:08.510Z,100339
2014-12-26T03:00:26.963Z,100339
2014-12-26T03:00:45.418Z,100350
2014-12-26T03:01:03.856Z,100350
2014-12-26T03:01:22.309Z,100353
2014-12-26T03:01:40.781Z,100344
2014-12-26T03:01:59.218Z,100344
2014-12-26T03:02:17.702Z,100347
2014-12-26T03:02:36.156Z,100347
2014-12-26T03:02:54.642Z,100341
2014-12-26T03:03:13.095Z,100341
2014-12-26T03:03:31.548Z,100341
2014-12-26T03:03:50.004Z,100350
2014-12-26T03:04:08.442Z,100350
2014-12-26T03:04:26.895Z,100341
2014-12-26T03:04:45.350Z,100339
2014-12-26T03:05:03.819Z,100339
2014-12-26T03:05:22.272Z,100341
2014-12-26T03:05:40.725Z,100350
2014-12-26T03:05:59.165Z,100350
2014-12-26T03:06:17.649Z,100347
2014-12-26T03:06:36.118Z,100350
2014-12-26T03:06:54.589Z,100344
2014-12-26T03:07:13.043Z,100344
2014-12-26T03:07:31.480Z,100344
2014-12-26T03:07:49.950Z,100344
2014-12-26T03:08:08.403Z,100341
2014-12-26T03:08:26.840Z,100341
2014-12-26T03:08:45.325Z,100341
2014-12-26T03:09:03.797Z,100347
2014-12-26T03:09:22.250Z,100344
2014-12-26T03:09:40.718Z,100344
2014-12-26T03:09:59.175Z,100350
2014-12-26T03:10:17.628Z,100350
2014-12-26T03:10:36.081Z,100339
2014-12-26T03:10:54.534Z,100350
2014-12-26T03:11:12.973Z,100356
2014-12-26T03:11:31.427Z,100353
2014-12-26T03:11:49.880Z,100350
2014-12-26T03:12:08.366Z,100350
2014-12-26T03:12:26.819Z,100350
2014-12-26T03:12:45.257Z,100356
2014-12-26T03:13:03.728Z,100347
2014-12-26T03:13:22.182Z,100339
2014-12-26T03:13:40.635Z,100344
2014-12-26T03:13:59.088Z,100341
2014-12-26T03:14:17.543Z,100341
2014-12-26T03:14:35.996Z,100347
2014-12-26T03:14:54.449Z,100344
2014-12-26T03:15:12.904Z,100350
2014-12-26T03:15:31.373Z,100336
2014-12-26T03:15:49.826Z,100341
2014-12-26T03:16:08.298Z,100347
2014-12-26T03:16:26.751Z,100353
2014-12-26T03:16:45.204Z,100347
2014-12-26T03:17:03.704Z,100353
2014-12-26T03:17:22.159Z,100350
2014-12-26T03:17:40.628Z,100350
2014-12-26T03:17:59.081Z,100344
2014-12-26T03:18:17.568Z,100339
2014-12-26T03:18:36.021Z,100353
2014-12-26T03:18:54.489Z,100353
2014-12-26T03:19:12.961Z,100344
2014-12-26T03:19:31.399Z,100344
2014-12-26T03:19:49.852Z,100353
2014-12-26T03:20:08.307Z,100344
2014-12-26T03:20:26.760Z,100344
2014-12-26T03:20:45.213Z,100344
2014-12-26T03:21:03.682Z,100344
2014-12-26T03:21:22.153Z,100344
2014-12-26T03:21:40.637Z,100341
2014-12-26T03:21:59.090Z,100350
2014-12-26T03:22:17.578Z,100347
2014-12-26T03:22:36.015Z,100334
2014-12-26T03:22:54.499Z,100344
2014-12-26T03:23:12.953Z,100347
2014-12-26T03:23:31.439Z,100350
2014-12-26T03:23:49.876Z,100331
2014-12-26T03:24:08.330Z,100336
2014-12-26T03:24:26.786Z,100350
2014-12-26T03:24:45.239Z,100341
2014-12-26T03:25:03.692Z,100339
2014-12-26T03:25:22.131Z,100339
2014-12-26T03:25:40.600Z,100336
2014-12-26T03:25:59.038Z,100339
2014-12-26T03:26:17.522Z,100339
2014-12-26T03:26:35.963Z,100350
2014-12-26T03:26:54.447Z,100339
2014-12-26T03:27:12.900Z,100350
2014-12-26T03:27:31.355Z,100339
2014-12-26T03:27:49.808Z,100356
2014-12-26T03:28:08.246Z,100350
2014-12-26T03:28:26.701Z,100353
2014-12-26T03:28:45.170Z,100347
2014-12-26T03:29:03.638Z,100344
2014-12-26T03:29:22.107Z,100344
2014-12-26T03:29:40.578Z,100358
2014-12-26T03:29:59.078Z,100350
2014-12-26T03:30:17.515Z,100344
2014-12-26T03:30:35.973Z,100353
2014-12-26T03:30:54.473Z,100341
2014-12-26T03:31:12.926Z,100347
2014-12-26T03:31:31.394Z,100350
2014-12-26T03:31:49.850Z,100347
2014-12-26T03:32:08.350Z,100350
2014-12-26T03:32:26.787Z,100353
2014-12-26T03:32:45.273Z,100356
2014-12-26T03:33:03.727Z,100350
2014-12-26T03:33:22.164Z,100350
2014-12-26T03:33:40.619Z,100344
2014-12-26T03:33:59.088Z,100347
2014-12-26T03:34:17.541Z,100344
2014-12-26T03:34:36.025Z,100344
2014-12-26T03:34:54.466Z,100350
2014-12-26T03:35:12.919Z,100344
2014-12-26T03:35:31.403Z,100356
2014-12-26T03:35:49.859Z,100347
2014-12-26T03:36:08.312Z,100347
2014-12-26T03:36:26.749Z,100347
2014-12-26T03:36:45.220Z,100347
2014-12-26T03:37:03.673Z,100341
2014-12-26T03:37:22.126Z,100336
2014-12-26T03:37:40.564Z,100347
2014-12-26T03:37:59.035Z,100350
2014-12-26T03:38:17.473Z,100341
2014-12-26T03:38:35.926Z,100347
2014-12-26T03:38:54.381Z,100341
2014-12-26T03:39:12.834Z,100353
2014-12-26T03:39:31.303Z,100347
2014-12-26T03:39:49.741Z,100347
2014-12-26T03:40:08.196Z,100353
2014-12-26T03:40:26.649Z,100353
2014-12-26T03:40:45.102Z,100350
2014-12-26T03:41:03.558Z,100347
2014-12-26T03:41:22.011Z,100353
2014-12-26T03:41:40.464Z,100353
2014-12-26T03:41:58.920Z,100367
2014-12-26T03:42:17.374Z,100356
2014-12-26T03:42:35.827Z,100350
2014-12-26T03:42:54.280Z,100353
2014-12-26T03:43:12.735Z,100347
2014-12-26T03:43:31.188Z,100350
2014-12-26T03:43:49.626Z,100347
2014-12-26T03:44:08.096Z,100353
2014-12-26T03:44:26.549Z,100356
2014-12-26T03:44:44.987Z,100361
2014-12-26T03:45:03.458Z,100358
2014-12-26T03:45:21.895Z,100361
2014-12-26T03:45:40.348Z,100364
2014-12-26T03:45:58.801Z,100364
2014-12-26T03:46:17.273Z,100358
2014-12-26T03:46:35.726Z,100356
2014-12-26T03:46:54.211Z,100367
2014-12-26T03:47:12.682Z,100356
2014-12-26T03:47:31.151Z,100353
2014-12-26T03:47:49.604Z,100353
2014-12-26T03:48:08.044Z,100355
2014-12-26T03:48:26.497Z,100361
2014-12-26T03:48:44.950Z,100370
2014-12-26T03:49:03.419Z,100361
2014-12-26T03:49:21.858Z,100372
2014-12-26T03:49:40.311Z,100370
2014-12-26T03:49:59.030Z,100353
2014-12-26T03:50:17.283Z,100367